Halls Creek, Australia
Current Conditions -  °F | °C
As of 4:00 PM on Saturday 25 Oct 2014 (Local Time) from YARG Reporting Station
Clear Clear  
Wind Chill: 97°   Ceiling: Unl
Heat Index: 97°   Visibility: 6mi
Dew Point: 54°   Wind: 5mph
Humidity: 23%   Direction: 120°ESE
Pressure: 29.83"   Gusts: NA
Location:  18.24°S, 127.66°E
Report Text: YARG 250800Z AUTO 12004KT 9999 // NCD 36/12 Q1010
Loading
Personal Weather Stations






























Interactive Weather Map
Tropical Storm Tracking
New forecast layout! Learn more

10-Day Weather Forecast

Advertisements
Track Severe Weather on mobile